Wetterdaten: aktuell Sonntag, 27.11.2022 14:10
Datum Zeit Temp. A. Feuchte A. Luftdruck Regen Wind Taupunkt Windchill Windben
27.11.2022 14:10 3,3 C 94 % 1027,0 hPa 0,0 l/m 5,2 km/h (1 Bft) 2,4 C 3,3 C 16,1 km/h (3 Bft)
27.11.2022 14:00 3,3 C 95 % 1027,1 hPa 0,0 l/m 5,8 km/h (2 Bft) 2,6 C 3,3 C 17,7 km/h (3 Bft)
27.11.2022 13:50 3,3 C 95 % 1027,2 hPa 0,0 l/m 4,5 km/h (1 Bft) 2,6 C 3,3 C 12,9 km/h (3 Bft)
27.11.2022 13:40 3,1 C 95 % 1027,4 hPa 0,0 l/m 5,1 km/h (1 Bft) 2,4 C 3,1 C 12,9 km/h (3 Bft)
27.11.2022 13:30 3,0 C 95 % 1027,3 hPa 0,0 l/m 6,9 km/h (2 Bft) 2,3 C 2,5 C 17,7 km/h (3 Bft)
27.11.2022 13:20 2,9 C 96 % 1027,5 hPa 0,0 l/m 11,7 km/h (2 Bft) 2,3 C -1,5 C 22,5 km/h (4 Bft)
27.11.2022 13:10 2,9 C 96 % 1027,7 hPa 0,0 l/m 9,6 km/h (2 Bft) 2,3 C 0,1 C 17,7 km/h (3 Bft)
27.11.2022 13:00 2,9 C 96 % 1028,0 hPa 0,0 l/m 6,7 km/h (2 Bft) 2,3 C 2,6 C 14,5 km/h (3 Bft)
27.11.2022 12:50 2,7 C 96 % 1027,9 hPa 0,0 l/m 7,3 km/h (2 Bft) 2,1 C 1,8 C 16,1 km/h (3 Bft)
27.11.2022 12:40 2,7 C 96 % 1028,1 hPa 0,0 l/m 8,6 km/h (2 Bft) 2,1 C 0,7 C 17,7 km/h (3 Bft)
27.11.2022 12:30 2,6 C 96 % 1028,1 hPa 0,0 l/m 7,3 km/h (2 Bft) 2,0 C 1,7 C 17,7 km/h (3 Bft)
27.11.2022 12:20 2,5 C 96 % 1028,3 hPa 0,0 l/m 8,6 km/h (2 Bft) 1,9 C 0,4 C 17,7 km/h (3 Bft)
27.11.2022 12:10 2,4 C 96 % 1028,4 hPa 0,0 l/m 7,4 km/h (2 Bft) 1,8 C 1,4 C 16,1 km/h (3 Bft)
27.11.2022 12:00 2,3 C 96 % 1028,5 hPa 0,0 l/m 7,4 km/h (2 Bft) 1,7 C 1,3 C 14,5 km/h (3 Bft)
27.11.2022 11:50 2,3 C 96 % 1028,8 hPa 0,0 l/m 6,9 km/h (2 Bft) 1,7 C 1,8 C 17,7 km/h (3 Bft)
27.11.2022 11:40 2,2 C 96 % 1029,1 hPa 0,0 l/m 5,4 km/h (1 Bft) 1,6 C 2,2 C 14,5 km/h (3 Bft)
27.11.2022 11:30 2,1 C 96 % 1029,3 hPa 0,0 l/m 4,9 km/h (1 Bft) 1,5 C 2,1 C 12,9 km/h (3 Bft)
27.11.2022 11:20 2,0 C 96 % 1029,4 hPa 0,0 l/m 5,8 km/h (2 Bft) 1,4 C 2,0 C 17,7 km/h (3 Bft)
27.11.2022 11:10 1,8 C 96 % 1029,5 hPa 0,0 l/m 6,7 km/h (2 Bft) 1,2 C 1,5 C 16,1 km/h (3 Bft)
27.11.2022 11:00 1,8 C 96 % 1029,6 hPa 0,0 l/m 7,7 km/h (2 Bft) 1,2 C 0,5 C 16,1 km/h (3 Bft)
27.11.2022 10:50 1,8 C 96 % 1029,6 hPa 0,0 l/m 6,8 km/h (2 Bft) 1,2 C 1,4 C 14,5 km/h (3 Bft)
_ Min-Zeit 06:40 00:00 14:10 - 00:00 06:30 13:20 00:00
Minimum _ -0,1 C 94 % 1027,0 hPa - 0,0 km/h (0 Bft) -0,7 C -1,5 C 0,0 km/h (0 Bft)
_ Max-Zeit 13:50 04:40 00:00 00:00 13:20 13:50 13:50 13:20
Maximum _ 3,3 C 96 % 1032,7 hPa 0,0 l/m 11,7 km/h
O-SO (2 Bft)
2,6 C 3,3 C 22,5 km/h
O-SO (4 Bft)
Durchschnitt _ 1,0 C 95 % 1030,3 hPa #0,0 l/m 3,9 km/h (1 Bft) 0,4 C 0,8 C 9,6 km/h (2 Bft)